sensor_id;sensor_type;location;lat;lon;timestamp;pressure;altitude;pressure_sealevel;temperature;humidity
28927;BME280;16038;47.692;9.400;2023-02-28T00:02:12;96942.19;;;-2.82;98.74
28927;BME280;16038;47.692;9.400;2023-02-28T00:04:37;96937.63;;;-2.81;98.45
28927;BME280;16038;47.692;9.400;2023-02-28T00:07:02;96946.78;;;-2.82;99.13
28927;BME280;16038;47.692;9.400;2023-02-28T00:09:28;96943.25;;;-2.83;98.51
28927;BME280;16038;47.692;9.400;2023-02-28T00:11:53;96941.41;;;-2.82;98.41
28927;BME280;16038;47.692;9.400;2023-02-28T00:14:18;96936.06;;;-2.82;98.80
28927;BME280;16038;47.692;9.400;2023-02-28T00:16:44;96935.53;;;-2.84;99.23
28927;BME280;16038;47.692;9.400;2023-02-28T00:19:09;96936.31;;;-2.84;99.03
28927;BME280;16038;47.692;9.400;2023-02-28T00:21:34;96936.59;;;-2.85;99.54
28927;BME280;16038;47.692;9.400;2023-02-28T00:24:00;96927.75;;;-2.81;98.19
28927;BME280;16038;47.692;9.400;2023-02-28T00:26:25;96924.22;;;-2.81;98.17
28927;BME280;16038;47.692;9.400;2023-02-28T00:28:51;96914.88;;;-2.84;99.05
28927;BME280;16038;47.692;9.400;2023-02-28T00:31:17;96932.53;;;-2.83;99.19
28927;BME280;16038;47.692;9.400;2023-02-28T00:33:42;96932.84;;;-2.84;99.36
28927;BME280;16038;47.692;9.400;2023-02-28T00:36:09;96932.03;;;-2.85;99.25
28927;BME280;16038;47.692;9.400;2023-02-28T00:38:35;96932.84;;;-2.84;99.75
28927;BME280;16038;47.692;9.400;2023-02-28T00:41:01;96935.53;;;-2.84;99.30
28927;BME280;16038;47.692;9.400;2023-02-28T00:43:29;96933.13;;;-2.86;99.63
28927;BME280;16038;47.692;9.400;2023-02-28T00:45:55;96923.47;;;-2.87;99.69
28927;BME280;16038;47.692;9.400;2023-02-28T00:48:20;96924.25;;;-2.86;99.55
28927;BME280;16038;47.692;9.400;2023-02-28T00:50:48;96922.38;;;-2.86;98.97
28927;BME280;16038;47.692;9.400;2023-02-28T00:53:13;96922.66;;;-2.88;99.12
28927;BME280;16038;47.692;9.400;2023-02-28T00:55:38;96929.34;;;-2.90;99.46
28927;BME280;16038;47.692;9.400;2023-02-28T00:58:03;96931.50;;;-2.92;99.96
28927;BME280;16038;47.692;9.400;2023-02-28T01:00:29;96913.03;;;-2.94;99.88
28927;BME280;16038;47.692;9.400;2023-02-28T01:02:54;96914.13;;;-2.95;100.00
28927;BME280;16038;47.692;9.400;2023-02-28T01:05:19;96920.00;;;-2.93;100.00
28927;BME280;16038;47.692;9.400;2023-02-28T01:07:44;96930.19;;;-2.95;100.00
28927;BME280;16038;47.692;9.400;2023-02-28T01:10:10;96929.91;;;-2.93;100.00
28927;BME280;16038;47.692;9.400;2023-02-28T01:12:36;96927.50;;;-2.95;100.00
28927;BME280;16038;47.692;9.400;2023-02-28T01:15:01;96919.75;;;-2.96;100.00
28927;BME280;16038;47.692;9.400;2023-02-28T01:17:26;96909.03;;;-2.96;100.00
28927;BME280;16038;47.692;9.400;2023-02-28T01:19:53;96920.53;;;-2.96;100.00
28927;BME280;16038;47.692;9.400;2023-02-28T01:22:18;96918.94;;;-2.97;100.00
28927;BME280;16038;47.692;9.400;2023-02-28T01:24:43;96922.97;;;-2.99;100.00
28927;BME280;16038;47.692;9.400;2023-02-28T01:27:08;96919.22;;;-2.98;100.00
28927;BME280;16038;47.692;9.400;2023-02-28T01:29:34;96919.22;;;-2.98;100.00
28927;BME280;16038;47.692;9.400;2023-02-28T01:31:59;96927.00;;;-2.97;100.00
28927;BME280;16038;47.692;9.400;2023-02-28T01:34:24;96918.44;;;-2.99;99.92
28927;BME280;16038;47.692;9.400;2023-02-28T01:36:49;96929.16;;;-2.99;100.00
28927;BME280;16038;47.692;9.400;2023-02-28T01:39:15;96929.66;;;-2.97;99.98
28927;BME280;16038;47.692;9.400;2023-02-28T01:41:40;96929.16;;;-2.99;100.00
28927;BME280;16038;47.692;9.400;2023-02-28T01:46:49;96931.00;;;-2.99;100.00
28927;BME280;16038;47.692;9.400;2023-02-28T01:49:15;96927.25;;;-2.98;100.00
28927;BME280;16038;47.692;9.400;2023-02-28T01:51:43;96926.47;;;-2.99;100.00
28927;BME280;16038;47.692;9.400;2023-02-28T01:54:22;96925.63;;;-2.99;99.92
28927;BME280;16038;47.692;9.400;2023-02-28T01:56:51;96928.06;;;-2.98;100.00
28927;BME280;16038;47.692;9.400;2023-02-28T01:59:27;96928.31;;;-2.94;100.00
28927;BME280;16038;47.692;9.400;2023-02-28T02:01:54;96928.53;;;-2.85;99.66
28927;BME280;16038;47.692;9.400;2023-02-28T02:04:20;96918.69;;;-3.00;99.74
28927;BME280;16038;47.692;9.400;2023-02-28T02:06:46;96918.44;;;-2.99;99.99
28927;BME280;16038;47.692;9.400;2023-02-28T02:09:12;96920.59;;;-3.06;100.00
28927;BME280;16038;47.692;9.400;2023-02-28T02:11:39;96906.38;;;-3.07;100.00
28927;BME280;16038;47.692;9.400;2023-02-28T02:19:40;96917.34;;;-3.08;99.94
28927;BME280;16038;47.692;9.400;2023-02-28T02:24:59;96908.78;;;-3.05;100.00
28927;BME280;16038;47.692;9.400;2023-02-28T02:30:20;96907.19;;;-3.06;100.00
28927;BME280;16038;47.692;9.400;2023-02-28T02:37:50;96909.06;;;-3.07;100.00
28927;BME280;16038;47.692;9.400;2023-02-28T02:45:12;96907.47;;;-3.08;99.94
28927;BME280;16038;47.692;9.400;2023-02-28T02:47:39;96919.00;;;-3.12;99.42
28927;BME280;16038;47.692;9.400;2023-02-28T02:50:07;96913.06;;;-3.04;99.05
28927;BME280;16038;47.692;9.400;2023-02-28T02:52:38;96916.56;;;-3.09;99.37
28927;BME280;16038;47.692;9.400;2023-02-28T02:55:04;96920.06;;;-3.13;99.47
28927;BME280;16038;47.692;9.400;2023-02-28T02:57:35;96921.13;;;-3.14;99.42
28927;BME280;16038;47.692;9.400;2023-02-28T03:00:03;96912.28;;;-3.10;98.61
28927;BME280;16038;47.692;9.400;2023-02-28T03:02:33;96910.94;;;-3.07;98.28
28927;BME280;16038;47.692;9.400;2023-02-28T03:05:00;96918.72;;;-3.11;99.25
28927;BME280;16038;47.692;9.400;2023-02-28T03:07:27;96919.00;;;-3.12;99.08
28927;BME280;16038;47.692;9.400;2023-02-28T03:09:53;96919.25;;;-3.14;99.19
28927;BME280;16038;47.692;9.400;2023-02-28T03:12:19;96919.25;;;-3.14;98.79
28927;BME280;16038;47.692;9.400;2023-02-28T03:14:51;96915.50;;;-3.13;98.33
28927;BME280;16038;47.692;9.400;2023-02-28T03:17:31;96910.69;;;-3.11;98.50
28927;BME280;16038;47.692;9.400;2023-02-28T03:20:17;96921.41;;;-3.16;98.49
28927;BME280;16038;47.692;9.400;2023-02-28T03:22:54;96905.59;;;-3.12;98.40
28927;BME280;16038;47.692;9.400;2023-02-28T03:30:35;96903.19;;;-3.14;98.42
28927;BME280;16038;47.692;9.400;2023-02-28T03:33:11;96901.59;;;-3.15;98.51
28927;BME280;16038;47.692;9.400;2023-02-28T03:35:48;96903.75;;;-3.17;98.56
28927;BME280;16038;47.692;9.400;2023-02-28T03:38:18;96907.75;;;-3.14;98.13
28927;BME280;16038;47.692;9.400;2023-02-28T03:40:47;96909.63;;;-3.15;98.09
28927;BME280;16038;47.692;9.400;2023-02-28T03:43:14;96908.56;;;-3.19;98.64
28927;BME280;16038;47.692;9.400;2023-02-28T03:45:43;96905.34;;;-3.16;97.76
28927;BME280;16038;47.692;9.400;2023-02-28T03:48:15;96915.78;;;-3.14;97.72
28927;BME280;16038;47.692;9.400;2023-02-28T03:50:44;96917.66;;;-3.15;98.10
28927;BME280;16038;47.692;9.400;2023-02-28T03:53:29;96913.38;;;-3.16;97.08
28927;BME280;16038;47.692;9.400;2023-02-28T03:55:59;96916.31;;;-3.17;96.82
28927;BME280;16038;47.692;9.400;2023-02-28T03:58:33;96920.34;;;-3.20;97.36
28927;BME280;16038;47.692;9.400;2023-02-28T04:01:07;96922.78;;;-3.18;96.55
28927;BME280;16038;47.692;9.400;2023-02-28T04:03:36;96907.75;;;-3.19;96.02
28927;BME280;16038;47.692;9.400;2023-02-28T04:06:02;96920.63;;;-3.21;96.45
28927;BME280;16038;47.692;9.400;2023-02-28T04:08:28;96933.50;;;-3.18;95.81
28927;BME280;16038;47.692;9.400;2023-02-28T04:10:56;96928.94;;;-3.23;96.52
28927;BME280;16038;47.692;9.400;2023-02-28T04:13:22;96927.03;;;-3.22;95.70
28927;BME280;16038;47.692;9.400;2023-02-28T04:15:48;96934.28;;;-3.23;95.97
28927;BME280;16038;47.692;9.400;2023-02-28T04:18:13;96934.53;;;-3.19;95.91
28927;BME280;16038;47.692;9.400;2023-02-28T04:20:38;96931.09;;;-3.25;96.13
28927;BME280;16038;47.692;9.400;2023-02-28T04:23:03;96937.50;;;-3.26;96.20
28927;BME280;16038;47.692;9.400;2023-02-28T04:25:29;96936.44;;;-3.25;96.08
28927;BME280;16038;47.692;9.400;2023-02-28T04:27:54;96937.78;;;-3.28;96.57
28927;BME280;16038;47.692;9.400;2023-02-28T04:30:19;96934.81;;;-3.26;96.28
28927;BME280;16038;47.692;9.400;2023-02-28T04:32:45;96922.00;;;-3.29;96.55
28927;BME280;16038;47.692;9.400;2023-02-28T04:35:10;96934.28;;;-3.28;96.23
28927;BME280;16038;47.692;9.400;2023-02-28T04:37:35;96930.81;;;-3.29;96.50
28927;BME280;16038;47.692;9.400;2023-02-28T04:40:02;96932.44;;;-3.28;95.71
28927;BME280;16038;47.692;9.400;2023-02-28T04:42:27;96934.56;;;-3.30;96.05
28927;BME280;16038;47.692;9.400;2023-02-28T04:45:00;96942.84;;;-3.26;96.11
28927;BME280;16038;47.692;9.400;2023-02-28T04:47:25;96937.25;;;-3.30;96.32
28927;BME280;16038;47.692;9.400;2023-02-28T04:49:50;96929.50;;;-3.31;97.11
28927;BME280;16038;47.692;9.400;2023-02-28T04:52:15;96940.22;;;-3.31;96.58
28927;BME280;16038;47.692;9.400;2023-02-28T04:54:41;96935.13;;;-3.33;96.29
28927;BME280;16038;47.692;9.400;2023-02-28T04:57:06;96938.88;;;-3.34;96.83
28927;BME280;16038;47.692;9.400;2023-02-28T04:59:31;96942.06;;;-3.37;97.15
28927;BME280;16038;47.692;9.400;2023-02-28T05:01:57;96931.91;;;-3.35;96.71
28927;BME280;16038;47.692;9.400;2023-02-28T05:04:23;96942.06;;;-3.37;96.78
28927;BME280;16038;47.692;9.400;2023-02-28T05:06:48;96937.53;;;-3.36;96.58
28927;BME280;16038;47.692;9.400;2023-02-28T05:09:13;96938.59;;;-3.37;97.08
28927;BME280;16038;47.692;9.400;2023-02-28T05:11:39;96946.91;;;-3.39;96.90
28927;BME280;16038;47.692;9.400;2023-02-28T05:14:05;96946.91;;;-3.34;96.47
28927;BME280;16038;47.692;9.400;2023-02-28T05:16:31;96949.31;;;-3.37;96.91
28927;BME280;16038;47.692;9.400;2023-02-28T05:18:56;96959.25;;;-3.38;96.64
28927;BME280;16038;47.692;9.400;2023-02-28T05:21:23;96959.50;;;-3.39;96.94
28927;BME280;16038;47.692;9.400;2023-02-28T05:23:49;96966.22;;;-3.42;97.53
28927;BME280;16038;47.692;9.400;2023-02-28T05:26:14;96969.69;;;-3.41;97.04
28927;BME280;16038;47.692;9.400;2023-02-28T05:28:40;96958.97;;;-3.41;96.56
28927;BME280;16038;47.692;9.400;2023-02-28T05:31:05;96962.72;;;-3.42;96.86
28927;BME280;16038;47.692;9.400;2023-02-28T05:33:30;96951.47;;;-3.44;96.73
28927;BME280;16038;47.692;9.400;2023-02-28T05:35:55;96946.38;;;-3.46;97.37
28927;BME280;16038;47.692;9.400;2023-02-28T05:38:21;96952.00;;;-3.48;97.43
28927;BME280;16038;47.692;9.400;2023-02-28T05:40:46;96962.19;;;-3.50;97.23
28927;BME280;16038;47.692;9.400;2023-02-28T05:43:11;96961.91;;;-3.48;97.17
28927;BME280;16038;47.692;9.400;2023-02-28T05:45:37;96956.28;;;-3.52;97.54
28927;BME280;16038;47.692;9.400;2023-02-28T05:48:02;96967.53;;;-3.50;97.47
28927;BME280;16038;47.692;9.400;2023-02-28T05:50:28;96966.47;;;-3.54;97.46
28927;BME280;16038;47.692;9.400;2023-02-28T05:52:53;96967.00;;;-3.52;97.00
28927;BME280;16038;47.692;9.400;2023-02-28T05:55:18;96970.78;;;-3.58;98.05
28927;BME280;16038;47.692;9.400;2023-02-28T05:57:44;96975.31;;;-3.53;97.51
28927;BME280;16038;47.692;9.400;2023-02-28T06:00:09;96979.88;;;-3.54;97.63
28927;BME280;16038;47.692;9.400;2023-02-28T06:02:35;96981.75;;;-3.54;97.61
28927;BME280;16038;47.692;9.400;2023-02-28T06:05:00;96990.56;;;-3.59;97.90
28927;BME280;16038;47.692;9.400;2023-02-28T06:07:26;96984.69;;;-3.56;97.88
28927;BME280;16038;47.692;9.400;2023-02-28T06:09:51;96987.63;;;-3.57;97.72
28927;BME280;16038;47.692;9.400;2023-02-28T06:12:16;96991.38;;;-3.58;97.91
28927;BME280;16038;47.692;9.400;2023-02-28T06:14:42;96994.88;;;-3.58;97.82
28927;BME280;16038;47.692;9.400;2023-02-28T06:17:08;96982.81;;;-3.60;97.92
28927;BME280;16038;47.692;9.400;2023-02-28T06:19:33;96999.13;;;-3.62;98.41
28927;BME280;16038;47.692;9.400;2023-02-28T06:21:58;96987.38;;;-3.61;98.43
28927;BME280;16038;47.692;9.400;2023-02-28T06:24:25;97007.44;;;-3.53;97.70
28927;BME280;16038;47.692;9.400;2023-02-28T06:26:52;97004.75;;;-3.53;97.88
28927;BME280;16038;47.692;9.400;2023-02-28T06:29:18;96994.06;;;-3.53;97.58
28927;BME280;16038;47.692;9.400;2023-02-28T06:31:46;97005.03;;;-3.44;97.58
28927;BME280;16038;47.692;9.400;2023-02-28T06:34:12;97018.16;;;-3.43;96.95
28927;BME280;16038;47.692;9.400;2023-02-28T06:36:38;97022.97;;;-3.40;96.20
28927;BME280;16038;47.692;9.400;2023-02-28T06:39:03;97010.13;;;-3.33;95.96
28927;BME280;16038;47.692;9.400;2023-02-28T06:41:28;97024.56;;;-3.34;96.93
28927;BME280;16038;47.692;9.400;2023-02-28T06:43:54;97036.38;;;-3.35;97.15
28927;BME280;16038;47.692;9.400;2023-02-28T06:46:20;97034.75;;;-3.36;96.80
28927;BME280;16038;47.692;9.400;2023-02-28T06:48:46;97031.56;;;-3.38;97.19
28927;BME280;16038;47.692;9.400;2023-02-28T06:51:16;97040.91;;;-3.30;96.83
28927;BME280;16038;47.692;9.400;2023-02-28T06:53:42;97025.38;;;-3.33;96.95
28927;BME280;16038;47.692;9.400;2023-02-28T06:56:08;97043.31;;;-3.34;97.04
28927;BME280;16038;47.692;9.400;2023-02-28T06:58:35;97041.72;;;-3.35;96.66
28927;BME280;16038;47.692;9.400;2023-02-28T07:01:00;97043.84;;;-3.37;96.51
28927;BME280;16038;47.692;9.400;2023-02-28T07:03:26;97051.91;;;-3.32;97.45
28927;BME280;16038;47.692;9.400;2023-02-28T07:05:51;97053.25;;;-3.29;97.01
28927;BME280;16038;47.692;9.400;2023-02-28T07:08:16;97061.81;;;-3.32;96.70
28927;BME280;16038;47.692;9.400;2023-02-28T07:10:42;97057.25;;;-3.32;96.67
28927;BME280;16038;47.692;9.400;2023-02-28T07:13:07;97065.28;;;-3.32;96.65
28927;BME280;16038;47.692;9.400;2023-02-28T07:15:33;97064.50;;;-3.32;96.33
28927;BME280;16038;47.692;9.400;2023-02-28T07:17:58;97068.78;;;-3.31;96.22
28927;BME280;16038;47.692;9.400;2023-02-28T07:20:24;97071.97;;;-3.19;96.39
28927;BME280;16038;47.692;9.400;2023-02-28T07:22:50;97067.72;;;-3.20;97.01
28927;BME280;16038;47.692;9.400;2023-02-28T07:25:24;97058.59;;;-3.24;96.32
28927;BME280;16038;47.692;9.400;2023-02-28T07:27:50;97068.50;;;-3.19;95.79
28927;BME280;16038;47.692;9.400;2023-02-28T07:30:15;97068.78;;;-3.16;95.99
28927;BME280;16038;47.692;9.400;2023-02-28T07:32:41;97070.13;;;-3.18;96.10
28927;BME280;16038;47.692;9.400;2023-02-28T07:35:06;97074.41;;;-3.17;95.57
28927;BME280;16038;47.692;9.400;2023-02-28T07:37:32;97073.06;;;-3.15;95.48
28927;BME280;16038;47.692;9.400;2023-02-28T07:40:02;97072.50;;;-3.01;95.74
28927;BME280;16038;47.692;9.400;2023-02-28T07:42:31;97079.75;;;-3.02;95.05
28927;BME280;16038;47.692;9.400;2023-02-28T07:44:57;97081.38;;;-3.11;95.41
28927;BME280;16038;47.692;9.400;2023-02-28T07:47:22;97092.38;;;-3.08;95.58
28927;BME280;16038;47.692;9.400;2023-02-28T07:49:47;97075.19;;;-3.12;95.47
28927;BME280;16038;47.692;9.400;2023-02-28T07:52:12;97076.28;;;-3.08;95.41
28927;BME280;16038;47.692;9.400;2023-02-28T07:54:38;97079.47;;;-2.90;95.60
28927;BME280;16038;47.692;9.400;2023-02-28T07:57:03;97077.56;;;-2.69;95.68
28927;BME280;16038;47.692;9.400;2023-02-28T07:59:28;97082.13;;;-2.75;95.02
28927;BME280;16038;47.692;9.400;2023-02-28T08:01:54;97078.66;;;-2.85;94.30
28927;BME280;16038;47.692;9.400;2023-02-28T08:04:19;97086.19;;;-2.93;94.62
28927;BME280;16038;47.692;9.400;2023-02-28T08:06:44;97074.09;;;-2.85;94.61
28927;BME280;16038;47.692;9.400;2023-02-28T08:09:10;97078.66;;;-2.75;94.27
28927;BME280;16038;47.692;9.400;2023-02-28T08:11:35;97082.13;;;-2.85;94.47
28927;BME280;16038;47.692;9.400;2023-02-28T08:14:01;97088.06;;;-2.88;94.42
28927;BME280;16038;47.692;9.400;2023-02-28T08:16:26;97093.94;;;-2.86;94.14
28927;BME280;16038;47.692;9.400;2023-02-28T08:18:52;97084.28;;;-2.87;94.31
28927;BME280;16038;47.692;9.400;2023-02-28T08:21:18;97086.69;;;-2.85;93.95
28927;BME280;16038;47.692;9.400;2023-02-28T08:23:43;97091.78;;;-2.84;93.94
28927;BME280;16038;47.692;9.400;2023-02-28T08:26:11;97096.31;;;-2.74;93.52
28927;BME280;16038;47.692;9.400;2023-02-28T08:28:36;97093.13;;;-2.76;93.13
28927;BME280;16038;47.692;9.400;2023-02-28T08:31:06;97076.75;;;-2.75;93.55
28927;BME280;16038;47.692;9.400;2023-02-28T08:33:31;97089.06;;;-2.63;93.90
28927;BME280;16038;47.692;9.400;2023-02-28T08:35:57;97093.09;;;-2.61;93.57
28927;BME280;16038;47.692;9.400;2023-02-28T08:38:22;97093.84;;;-2.45;94.42
28927;BME280;16038;47.692;9.400;2023-02-28T08:40:48;97085.91;;;-2.05;92.73
28927;BME280;16038;47.692;9.400;2023-02-28T08:43:13;97097.97;;;-1.98;91.59
28927;BME280;16038;47.692;9.400;2023-02-28T08:45:39;97099.47;;;-1.71;90.14
28927;BME280;16038;47.692;9.400;2023-02-28T08:48:05;97109.84;;;-1.14;87.53
28927;BME280;16038;47.692;9.400;2023-02-28T08:50:31;97113.13;;;-1.28;84.60
28927;BME280;16038;47.692;9.400;2023-02-28T08:52:56;97110.66;;;-1.59;87.53
28927;BME280;16038;47.692;9.400;2023-02-28T08:55:21;97116.78;;;-1.98;88.12
28927;BME280;16038;47.692;9.400;2023-02-28T08:57:46;97112.75;;;-2.05;89.07
28927;BME280;16038;47.692;9.400;2023-02-28T09:00:12;97124.56;;;-2.01;91.13
28927;BME280;16038;47.692;9.400;2023-02-28T09:02:38;97123.72;;;-1.92;88.93
28927;BME280;16038;47.692;9.400;2023-02-28T09:05:04;97129.56;;;-1.74;88.51
28927;BME280;16038;47.692;9.400;2023-02-28T09:07:29;97116.06;;;-2.29;89.15
28927;BME280;16038;47.692;9.400;2023-02-28T09:09:54;97125.22;;;-1.70;89.86
28927;BME280;16038;47.692;9.400;2023-02-28T09:12:21;97131.50;;;-1.90;89.75
28927;BME280;16038;47.692;9.400;2023-02-28T09:14:46;97125.22;;;-2.30;90.30
28927;BME280;16038;47.692;9.400;2023-02-28T09:17:11;97133.94;;;-1.94;90.13
28927;BME280;16038;47.692;9.400;2023-02-28T09:19:36;97130.88;;;-1.71;87.96
28927;BME280;16038;47.692;9.400;2023-02-28T09:22:02;97133.97;;;-1.49;88.45
28927;BME280;16038;47.692;9.400;2023-02-28T09:24:28;97131.56;;;-1.11;86.23
28927;BME280;16038;47.692;9.400;2023-02-28T09:26:53;97131.81;;;-1.47;83.91
28927;BME280;16038;47.692;9.400;2023-02-28T09:29:19;97133.97;;;-1.44;87.30
28927;BME280;16038;47.692;9.400;2023-02-28T09:31:44;97140.19;;;-1.14;86.17
28927;BME280;16038;47.692;9.400;2023-02-28T09:34:10;97131.78;;;-1.02;82.45
28927;BME280;16038;47.692;9.400;2023-02-28T09:36:35;97141.06;;;-0.84;84.50
28927;BME280;16038;47.692;9.400;2023-02-28T09:39:02;97125.72;;;-1.63;87.28
28927;BME280;16038;47.692;9.400;2023-02-28T09:41:28;97126.72;;;-2.03;88.25
28927;BME280;16038;47.692;9.400;2023-02-28T09:43:59;97126.72;;;-2.03;89.42
28927;BME280;16038;47.692;9.400;2023-02-28T09:49:00;97130.75;;;-2.01;88.99
28927;BME280;16038;47.692;9.400;2023-02-28T09:51:29;97117.28;;;-1.90;88.90
28927;BME280;16038;47.692;9.400;2023-02-28T09:53:55;97110.66;;;-2.08;90.03
28927;BME280;16038;47.692;9.400;2023-02-28T09:56:25;97127.53;;;-2.08;90.45
28927;BME280;16038;47.692;9.400;2023-02-28T10:01:23;97135.72;;;-1.74;89.92
28927;BME280;16038;47.692;9.400;2023-02-28T10:06:48;97150.66;;;-1.57;89.93
28927;BME280;16038;47.692;9.400;2023-02-28T10:09:22;97149.38;;;-1.65;88.62
28927;BME280;16038;47.692;9.400;2023-02-28T10:11:53;97153.25;;;-1.37;86.90
28927;BME280;16038;47.692;9.400;2023-02-28T10:14:19;97164.22;;;-1.83;88.26
28927;BME280;16038;47.692;9.400;2023-02-28T10:16:47;97149.72;;;-1.82;88.43
28927;BME280;16038;47.692;9.400;2023-02-28T10:21:46;97160.22;;;-1.36;87.43
28927;BME280;16038;47.692;9.400;2023-02-28T10:24:20;97152.81;;;-1.54;86.43
28927;BME280;16038;47.692;9.400;2023-02-28T10:26:48;97166.38;;;-1.85;89.38
28927;BME280;16038;47.692;9.400;2023-02-28T10:29:13;97156.41;;;-1.74;88.97
28927;BME280;16038;47.692;9.400;2023-02-28T10:31:39;97159.63;;;-1.72;89.14
28927;BME280;16038;47.692;9.400;2023-02-28T10:34:05;97155.31;;;-1.73;89.58
28927;BME280;16038;47.692;9.400;2023-02-28T10:36:31;97153.22;;;-1.86;89.51
28927;BME280;16038;47.692;9.400;2023-02-28T10:38:56;97156.38;;;-1.64;89.08
28927;BME280;16038;47.692;9.400;2023-02-28T10:41:29;97161.94;;;-1.55;89.51
28927;BME280;16038;47.692;9.400;2023-02-28T10:44:17;97151.53;;;-1.62;89.24
28927;BME280;16038;47.692;9.400;2023-02-28T10:46:44;97153.25;;;-1.37;89.97
28927;BME280;16038;47.692;9.400;2023-02-28T10:49:23;97151.31;;;-1.26;85.23
28927;BME280;16038;47.692;9.400;2023-02-28T10:51:51;97165.81;;;-0.87;84.32
28927;BME280;16038;47.692;9.400;2023-02-28T10:54:27;97170.53;;;-1.53;88.06
28927;BME280;16038;47.692;9.400;2023-02-28T10:57:08;97161.75;;;-1.69;88.71
28927;BME280;16038;47.692;9.400;2023-02-28T10:59:34;97165.03;;;-1.32;88.67
28927;BME280;16038;47.692;9.400;2023-02-28T11:01:59;97178.88;;;-1.10;87.42
28927;BME280;16038;47.692;9.400;2023-02-28T11:09:44;97158.22;;;-0.51;82.08
28927;BME280;16038;47.692;9.400;2023-02-28T11:15:35;97149.47;;;-1.36;87.30
28927;BME280;16038;47.692;9.400;2023-02-28T11:17:41;97149.41;;;-1.25;87.91
28927;BME280;16038;47.692;9.400;2023-02-28T11:20:14;97155.75;;;-1.50;87.05
28927;BME280;16038;47.692;9.400;2023-02-28T11:22:43;97152.75;;;-1.44;88.38
28927;BME280;16038;47.692;9.400;2023-02-28T11:25:12;97151.94;;;-1.44;87.83
28927;BME280;16038;47.692;9.400;2023-02-28T11:27:46;97159.25;;;-1.55;86.94
28927;BME280;16038;47.692;9.400;2023-02-28T11:32:49;97157.38;;;-1.49;86.80
28927;BME280;16038;47.692;9.400;2023-02-28T11:35:21;97158.88;;;-1.33;87.78
28927;BME280;16038;47.692;9.400;2023-02-28T11:37:48;97157.28;;;-1.00;87.50
28927;BME280;16038;47.692;9.400;2023-02-28T11:40:16;97164.28;;;-0.99;86.11
28927;BME280;16038;47.692;9.400;2023-02-28T11:42:55;97172.34;;;-0.64;84.06
28927;BME280;16038;47.692;9.400;2023-02-28T11:50:45;97157.91;;;-1.08;86.22
28927;BME280;16038;47.692;9.400;2023-02-28T11:56:10;97150.31;;;-1.01;86.85
28927;BME280;16038;47.692;9.400;2023-02-28T12:06:23;97159.41;;;-0.33;85.11
28927;BME280;16038;47.692;9.400;2023-02-28T12:09:02;97153.13;;;-0.52;82.70
28927;BME280;16038;47.692;9.400;2023-02-28T12:22:00;97154.44;;;-0.45;84.76
28927;BME280;16038;47.692;9.400;2023-02-28T12:27:05;97157.31;;;0.74;79.07
28927;BME280;16038;47.692;9.400;2023-02-28T12:29:46;97147.75;;;1.01;78.22
28927;BME280;16038;47.692;9.400;2023-02-28T12:32:15;97150.31;;;-0.13;81.04
28927;BME280;16038;47.692;9.400;2023-02-28T12:34:46;97148.53;;;-0.23;83.97
28927;BME280;16038;47.692;9.400;2023-02-28T12:37:25;97147.13;;;0.09;82.11
28927;BME280;16038;47.692;9.400;2023-02-28T12:39:54;97139.78;;;-0.09;82.66
28927;BME280;16038;47.692;9.400;2023-02-28T12:42:28;97138.88;;;0.44;81.07
28927;BME280;16038;47.692;9.400;2023-02-28T12:44:56;97140.06;;;0.13;79.71
28927;BME280;16038;47.692;9.400;2023-02-28T12:47:23;97138.06;;;-0.24;82.69
28927;BME280;16038;47.692;9.400;2023-02-28T12:49:50;97139.22;;;-0.30;83.93
28927;BME280;16038;47.692;9.400;2023-02-28T12:52:23;97138.94;;;0.14;83.14
28927;BME280;16038;47.692;9.400;2023-02-28T12:54:56;97138.50;;;-0.17;80.90
28927;BME280;16038;47.692;9.400;2023-02-28T12:57:32;97129.63;;;0.50;79.43
28927;BME280;16038;47.692;9.400;2023-02-28T13:00:24;97123.31;;;-0.08;82.14
28927;BME280;16038;47.692;9.400;2023-02-28T13:03:01;97119.66;;;-0.70;84.80
28927;BME280;16038;47.692;9.400;2023-02-28T13:08:28;97128.72;;;-0.08;83.96
28927;BME280;16038;47.692;9.400;2023-02-28T13:11:01;97124.97;;;0.36;81.17
28927;BME280;16038;47.692;9.400;2023-02-28T13:13:27;97133.69;;;0.66;78.54
28927;BME280;16038;47.692;9.400;2023-02-28T13:16:06;97133.06;;;0.12;79.56
28927;BME280;16038;47.692;9.400;2023-02-28T13:21:05;97127.50;;;0.28;80.28
28927;BME280;16038;47.692;9.400;2023-02-28T13:26:20;97128.25;;;-0.15;82.44
28927;BME280;16038;47.692;9.400;2023-02-28T13:31:19;97131.66;;;0.39;82.52
28927;BME280;16038;47.692;9.400;2023-02-28T13:41:45;97129.41;;;-0.21;83.26
28927;BME280;16038;47.692;9.400;2023-02-28T13:47:21;97129.41;;;0.65;80.71
28927;BME280;16038;47.692;9.400;2023-02-28T13:49:27;97133.31;;;0.54;78.82
28927;BME280;16038;47.692;9.400;2023-02-28T14:05:19;97143.50;;;-0.29;85.97
28927;BME280;16038;47.692;9.400;2023-02-28T14:07:56;97139.16;;;-0.25;83.94
28927;BME280;16038;47.692;9.400;2023-02-28T14:10:29;97144.13;;;-0.13;84.02
28927;BME280;16038;47.692;9.400;2023-02-28T14:13:00;97143.16;;;-0.47;85.20
28927;BME280;16038;47.692;9.400;2023-02-28T14:17:56;97147.38;;;-0.16;85.77
28927;BME280;16038;47.692;9.400;2023-02-28T14:20:25;97143.66;;;-0.21;84.26
28927;BME280;16038;47.692;9.400;2023-02-28T14:25:40;97147.13;;;0.09;83.35
28927;BME280;16038;47.692;9.400;2023-02-28T14:28:12;97150.19;;;0.22;83.09
28927;BME280;16038;47.692;9.400;2023-02-28T14:33:27;97126.72;;;0.03;82.25
28927;BME280;16038;47.692;9.400;2023-02-28T14:36:00;97134.50;;;-0.20;82.75
28927;BME280;16038;47.692;9.400;2023-02-28T14:38:50;97147.19;;;0.04;83.60
28927;BME280;16038;47.692;9.400;2023-02-28T14:41:14;97134.00;;;0.22;82.68
28927;BME280;16038;47.692;9.400;2023-02-28T14:43:47;97154.53;;;0.17;83.49
28927;BME280;16038;47.692;9.400;2023-02-28T14:46:13;97154.56;;;-0.07;84.23
28927;BME280;16038;47.692;9.400;2023-02-28T14:48:39;97150.66;;;0.05;84.74
28927;BME280;16038;47.692;9.400;2023-02-28T14:51:04;97150.38;;;-0.18;84.97
28927;BME280;16038;47.692;9.400;2023-02-28T14:53:30;97148.22;;;-0.45;86.47
28927;BME280;16038;47.692;9.400;2023-02-28T14:56:00;97150.06;;;-0.16;86.89
28927;BME280;16038;47.692;9.400;2023-02-28T14:58:26;97146.78;;;-0.32;87.23
28927;BME280;16038;47.692;9.400;2023-02-28T15:00:53;97142.28;;;0.06;86.64
28927;BME280;16038;47.692;9.400;2023-02-28T15:03:30;97157.53;;;-0.08;86.64
28927;BME280;16038;47.692;9.400;2023-02-28T15:06:00;97146.78;;;-0.32;87.17